アナディリ の空港の天気 - METARとTAF

アナディリ・ウゴルヌイ空港 ( UHMA / DYR ) - ロシア アナディリ
飛行場実況気象(Metar)
観測時間07/17 20:00 MAGT (07/17 09:00 UTC)
風向・風速東南東 3m/s
視程10km以上
天気現象
少しの雲 雲底高度 180m
全天の8割程度の雲 雲底高度 760m
全天を覆う雲 雲底高度 2440m
気温15℃
湿度88%
気圧1008hPa
METARUHMA 170900Z 11003MPS 9999 FEW006 BKN025 OVC080 15/13 Q1008 RMK END R01/09005MPS MT OBSC QFE752/1003
過去の天気等 Google飛行場航空写真 Wunderground天気予報

過去48時間のMETAR

飛行場予報(TAF)
発表時間: 7/17 18:52 MAGT (7/17 07:52 UTC)
予報対象時間: 17日20時 MAGT ~ 18日20時 MAGT
風向・風速南東 7m/s 瞬間風速 12m/s
視程10km以上
全天の4割程度の雲 雲底高度 300m
全天の8割程度の雲 雲底高度 700m
17日20時 MAGT ~ 18日8時 MAGT に一時的に
風向・風速南南西 3m/s 瞬間風速 8m/s
視程2000m
天気現象弱いしゅう雨 もや
全天の8割程度の雲 雲底高度 300m
全天の8割程度の積乱雲 雲底高度 520m
18日8時 MAGT ~ 18日10時 MAGT に徐々に
風向・風速西 8m/s 瞬間風速 13m/s
18日10時 MAGT ~ 18日17時 MAGT に一時的に
風向・風速西北西 11m/s 瞬間風速 16m/s
視程4000m
天気現象弱いしゅう雨 もや
全天の4割程度の雲 雲底高度 150m
全天の8割程度の積乱雲 雲底高度 610m
TAF UHMA 170752Z 1709/1809 14007G12MPS 9999 SCT010 BKN023
TEMPO 1709/1721 20003G08MPS 2000 -SHRA BR BKN010 BKN017CB
BECMG 1721/1723 26008G13MPS
TEMPO 1723/1806 29011G16MPS 4000 -SHRA BR SCT005 BKN020CB